createdAt,value
2022-09-02T00:02:51.165Z,8.05
2022-09-02T00:05:54.652Z,7.45
2022-09-02T00:08:55.420Z,7.95
2022-09-02T00:11:57.432Z,7.20
2022-09-02T00:14:59.119Z,7.75
2022-09-02T00:18:01.680Z,7.28
2022-09-02T00:21:04.061Z,7.78
2022-09-02T00:24:07.766Z,8.05
2022-09-02T00:27:08.799Z,7.50
2022-09-02T00:30:10.724Z,8.57
2022-09-02T00:33:13.324Z,8.90
2022-09-02T00:36:14.680Z,8.68
2022-09-02T00:39:16.209Z,8.52
2022-09-02T00:42:17.396Z,8.13
2022-09-02T00:45:19.441Z,8.48
2022-09-02T00:48:20.360Z,7.93
2022-09-02T00:51:22.235Z,8.23
2022-09-02T00:54:26.816Z,8.38
2022-09-02T00:57:36.838Z,8.18
2022-09-02T01:00:44.831Z,8.93
2022-09-02T01:03:46.272Z,8.95
2022-09-02T01:06:48.778Z,8.65
2022-09-02T01:09:51.516Z,8.48
2022-09-02T01:13:07.271Z,8.10
2022-09-02T01:16:31.345Z,7.93
2022-09-02T01:19:39.763Z,8.07
2022-09-02T01:22:42.525Z,7.28
2022-09-02T01:25:45.127Z,7.32
2022-09-02T01:28:46.365Z,7.95
2022-09-02T01:31:47.820Z,7.05
2022-09-02T01:34:49.440Z,9.18
2022-09-02T01:37:56.150Z,7.80
2022-09-02T01:40:58.385Z,7.17
2022-09-02T01:43:59.822Z,7.80
2022-09-02T01:47:01.203Z,7.63
2022-09-02T01:50:07.647Z,7.65
2022-09-02T01:53:08.720Z,7.47
2022-09-02T01:56:10.329Z,7.60
2022-09-02T01:59:17.832Z,7.57
2022-09-02T02:02:21.363Z,7.63
2022-09-02T02:05:23.222Z,8.38
2022-09-02T02:08:26.052Z,7.60
2022-09-02T02:11:27.339Z,7.80
2022-09-02T02:14:32.548Z,8.02
2022-09-02T02:17:34.131Z,7.35
2022-09-02T02:20:36.643Z,8.93
2022-09-02T02:23:38.145Z,8.38
2022-09-02T02:26:40.892Z,8.18
2022-09-02T02:29:43.434Z,7.78
2022-09-02T02:32:47.497Z,7.68
2022-09-02T02:35:52.545Z,8.15
2022-09-02T02:38:56.676Z,7.85
2022-09-02T02:41:58.138Z,8.10
2022-09-02T02:44:59.300Z,10.23
2022-09-02T02:48:00.568Z,7.93
2022-09-02T02:51:03.208Z,8.13
2022-09-02T02:54:06.403Z,8.65
2022-09-02T02:57:11.545Z,7.53
2022-09-02T03:00:23.763Z,7.47
2022-09-02T03:03:25.099Z,7.82
2022-09-02T03:06:29.924Z,7.72
2022-09-02T03:09:31.946Z,6.80
2022-09-02T03:12:35.095Z,7.90
2022-09-02T03:15:39.615Z,8.45
2022-09-02T03:18:40.825Z,7.90
2022-09-02T03:21:43.148Z,8.18
2022-09-02T03:24:45.898Z,8.85
2022-09-02T03:27:48.625Z,8.25
2022-09-02T03:30:50.113Z,9.32
2022-09-02T03:33:52.896Z,11.32
2022-09-02T03:36:55.108Z,8.95
2022-09-02T03:39:56.345Z,8.85
2022-09-02T03:43:00.351Z,9.68
2022-09-02T03:46:02.689Z,10.15
2022-09-02T03:49:04.870Z,13.63
2022-09-02T03:52:06.668Z,10.30
2022-09-02T03:55:07.939Z,9.30
2022-09-02T03:58:09.283Z,12.07
2022-09-02T04:01:24.573Z,9.85
2022-09-02T04:04:30.097Z,9.95
2022-09-02T04:07:32.012Z,9.73
2022-09-02T04:10:33.128Z,10.10
2022-09-02T04:13:35.497Z,9.30
2022-09-02T04:16:37.103Z,9.55
2022-09-02T04:19:41.071Z,11.15
2022-09-02T04:22:42.634Z,10.05
2022-09-02T04:25:45.355Z,10.32
2022-09-02T04:28:50.266Z,10.15
2022-09-02T04:31:52.416Z,12.15
2022-09-02T04:34:53.861Z,10.80
2022-09-02T04:37:55.630Z,10.23
2022-09-02T04:40:57.423Z,10.93
2022-09-02T04:44:00.480Z,9.65
2022-09-02T04:47:05.705Z,15.85
2022-09-02T04:50:07.850Z,9.60
2022-09-02T04:53:11.341Z,9.88
2022-09-02T04:56:20.773Z,11.25
2022-09-02T04:59:22.875Z,12.15
2022-09-02T05:02:34.391Z,14.25
2022-09-02T05:05:36.193Z,11.55
2022-09-02T05:08:38.074Z,12.50
2022-09-02T05:11:40.345Z,10.80
2022-09-02T05:14:41.419Z,10.20
2022-09-02T05:17:43.521Z,9.00
2022-09-02T05:20:45.228Z,9.50
2022-09-02T05:23:47.234Z,8.75
2022-09-02T05:26:48.258Z,10.40
2022-09-02T05:29:50.333Z,7.90
2022-09-02T05:32:54.512Z,8.02
2022-09-02T05:35:56.209Z,7.93
2022-09-02T05:39:00.095Z,8.75
2022-09-02T05:42:01.778Z,7.55
2022-09-02T05:45:03.374Z,8.45
2022-09-02T05:48:24.648Z,7.07
2022-09-02T05:51:26.181Z,7.57
2022-09-02T05:54:31.364Z,8.38
2022-09-02T05:57:34.527Z,6.30
2022-09-02T06:00:39.878Z,6.57
2022-09-02T06:03:41.928Z,7.10
2022-09-02T06:06:44.057Z,6.70
2022-09-02T06:09:49.971Z,6.65
2022-09-02T06:12:52.744Z,9.60
2022-09-02T06:15:57.995Z,6.90
2022-09-02T06:19:05.817Z,7.43
2022-09-02T06:22:08.861Z,7.27
2022-09-02T06:25:12.646Z,6.18
2022-09-02T06:28:16.336Z,6.28
2022-09-02T06:31:23.137Z,6.15
2022-09-02T06:34:27.327Z,13.07
2022-09-02T06:37:30.500Z,8.55
2022-09-02T06:40:33.022Z,6.30
2022-09-02T06:43:42.354Z,6.63
2022-09-02T06:46:59.144Z,6.80
2022-09-02T06:50:02.883Z,6.85
2022-09-02T06:53:08.284Z,6.95
2022-09-02T06:56:10.915Z,6.50
2022-09-02T06:59:14.208Z,5.93
2022-09-02T07:02:24.391Z,6.60
2022-09-02T07:05:26.164Z,6.82
2022-09-02T07:55:52.745Z,6.68
2022-09-02T07:58:54.212Z,6.78
2022-09-02T08:27:47.886Z,6.63
2022-09-02T08:30:48.889Z,6.60
2022-09-02T08:33:50.911Z,5.68
2022-09-02T08:36:56.301Z,6.72
2022-09-02T08:39:58.648Z,6.60
2022-09-02T08:43:01.368Z,6.68
2022-09-02T08:46:05.466Z,6.05
2022-09-02T08:49:33.866Z,6.90
2022-09-02T08:53:22.659Z,6.78
2022-09-02T08:56:26.678Z,6.97
2022-09-02T08:59:31.872Z,7.97
2022-09-02T09:02:57.033Z,7.35
2022-09-02T09:06:19.034Z,6.28
2022-09-02T09:09:51.790Z,6.97
2022-09-02T09:13:14.466Z,7.45
2022-09-02T09:16:27.396Z,7.25
2022-09-02T09:19:58.736Z,6.30
2022-09-02T09:26:12.649Z,6.82
2022-09-02T09:29:14.057Z,7.65
2022-09-02T09:32:36.790Z,9.70
2022-09-02T09:35:55.299Z,6.97
2022-09-02T09:38:56.127Z,6.90
2022-09-02T09:42:00.839Z,6.25
2022-09-02T09:45:22.224Z,7.18
2022-09-02T09:48:31.702Z,8.18
2022-09-02T09:51:49.708Z,7.55
2022-09-02T09:55:12.395Z,7.10
2022-09-02T09:58:13.580Z,7.38
2022-09-02T10:01:26.913Z,9.25
2022-09-02T10:04:43.300Z,8.13
2022-09-02T10:08:19.187Z,6.93
2022-09-02T10:11:25.798Z,7.10
2022-09-02T10:14:48.496Z,7.53
2022-09-02T10:18:05.484Z,8.30
2022-09-02T10:21:16.623Z,7.90
2022-09-02T10:24:43.076Z,7.82
2022-09-02T10:28:15.318Z,8.35
2022-09-02T10:31:41.433Z,7.85
2022-09-02T10:35:33.457Z,6.75
2022-09-02T10:38:49.223Z,7.07
2022-09-02T10:41:54.277Z,7.37
2022-09-02T10:45:22.193Z,6.53
2022-09-02T10:49:01.683Z,5.93
2022-09-02T10:52:28.627Z,6.78
2022-09-02T10:56:02.203Z,7.38
2022-09-02T10:59:20.702Z,6.82
2022-09-02T11:02:48.124Z,6.38
2022-09-02T11:05:59.229Z,6.95
2022-09-02T11:09:21.590Z,6.75
2022-09-02T11:12:38.043Z,6.75
2022-09-02T11:15:57.695Z,7.00
2022-09-02T11:19:24.506Z,6.40
2022-09-02T11:22:40.856Z,7.28
2022-09-02T11:29:27.808Z,6.68
2022-09-02T11:32:43.896Z,6.65
2022-09-02T11:35:45.228Z,5.80
2022-09-02T11:38:51.691Z,6.85
2022-09-02T11:42:07.710Z,6.90
2022-09-02T11:45:36.389Z,8.05
2022-09-02T11:49:08.487Z,7.45
2022-09-02T11:52:52.019Z,6.32
2022-09-02T11:55:58.523Z,7.32
2022-09-02T11:58:59.192Z,7.85
2022-09-02T12:02:01.470Z,6.00
2022-09-02T12:05:30.583Z,7.55
2022-09-02T12:08:35.665Z,7.25
2022-09-02T12:11:43.849Z,6.97
2022-09-02T12:14:48.309Z,7.18
2022-09-02T12:17:49.992Z,6.78
2022-09-02T12:21:00.793Z,5.32
2022-09-02T12:24:04.361Z,5.93
2022-09-02T12:27:09.696Z,5.90
2022-09-02T12:30:13.242Z,5.40
2022-09-02T12:33:29.993Z,5.95
2022-09-02T12:36:37.095Z,6.13
2022-09-02T12:39:37.920Z,5.57
2022-09-02T12:42:43.115Z,4.95
2022-09-02T12:45:50.917Z,5.03
2022-09-02T12:49:41.637Z,5.78
2022-09-02T12:52:49.816Z,5.18
2022-09-02T12:56:06.581Z,5.68
2022-09-02T12:59:08.157Z,6.10
2022-09-02T13:02:34.306Z,6.32
2022-09-02T13:06:01.495Z,4.85
2022-09-02T13:09:39.151Z,5.40
2022-09-02T13:13:07.848Z,5.45
2022-09-02T13:16:22.351Z,5.10
2022-09-02T13:19:54.281Z,5.72
2022-09-02T13:23:41.014Z,5.30
2022-09-02T13:27:11.840Z,5.07
2022-09-02T13:31:12.438Z,5.80
2022-09-02T13:34:14.411Z,5.40
2022-09-02T13:37:59.910Z,6.60
2022-09-02T13:41:01.073Z,5.63
2022-09-02T13:44:26.269Z,7.20
2022-09-02T13:47:27.712Z,5.93
2022-09-02T13:50:31.927Z,6.30
2022-09-02T13:54:05.657Z,6.80
2022-09-02T13:57:04.808Z,5.88
2022-09-02T14:00:07.262Z,6.13
2022-09-02T14:03:21.466Z,6.43
2022-09-02T14:06:38.636Z,6.70
2022-09-02T14:09:41.837Z,5.90
2022-09-02T14:12:45.058Z,7.53
2022-09-02T14:15:45.906Z,7.18
2022-09-02T14:19:23.605Z,7.18
2022-09-02T14:22:30.264Z,6.30
2022-09-02T14:25:48.499Z,6.95
2022-09-02T14:28:52.616Z,7.13
2022-09-02T14:32:21.315Z,6.60
2022-09-02T14:35:23.877Z,6.72
2022-09-02T14:38:27.601Z,6.38
2022-09-02T14:41:36.302Z,6.65
2022-09-02T14:44:37.498Z,6.30
2022-09-02T14:47:40.658Z,7.28
2022-09-02T14:50:42.467Z,6.90
2022-09-02T14:53:44.683Z,6.53
2022-09-02T14:56:47.283Z,6.88
2022-09-02T14:59:50.239Z,6.85
2022-09-02T15:02:57.654Z,7.00
2022-09-02T15:05:58.943Z,8.38
2022-09-02T15:08:59.899Z,6.47
2022-09-02T15:12:02.840Z,7.40
2022-09-02T15:15:04.487Z,6.70
2022-09-02T15:18:06.094Z,7.18
2022-09-02T15:21:11.676Z,6.80
2022-09-02T15:24:12.636Z,7.07
2022-09-02T15:27:14.475Z,6.80
2022-09-02T15:41:50.236Z,7.00
2022-09-02T15:44:51.323Z,7.18
2022-09-02T15:47:52.662Z,6.40
2022-09-02T15:50:54.291Z,6.50
2022-09-02T15:54:01.870Z,6.18
2022-09-02T15:57:03.814Z,6.80
2022-09-02T16:00:06.881Z,6.70
2022-09-02T16:03:12.797Z,6.10
2022-09-02T16:06:13.891Z,6.13
2022-09-02T16:09:18.095Z,5.93
2022-09-02T16:12:19.098Z,6.53
2022-09-02T16:15:21.123Z,5.72
2022-09-02T16:18:22.180Z,6.07
2022-09-02T16:21:23.764Z,5.82
2022-09-02T16:24:26.572Z,5.90
2022-09-02T16:27:46.080Z,5.75
2022-09-02T16:30:47.386Z,6.60
2022-09-02T16:33:57.091Z,6.28
2022-09-02T16:36:58.004Z,6.53
2022-09-02T16:39:59.364Z,7.25
2022-09-02T16:43:00.163Z,6.53
2022-09-02T16:46:04.636Z,6.80
2022-09-02T16:49:06.455Z,7.95
2022-09-02T16:52:07.641Z,6.32
2022-09-02T16:55:09.058Z,6.38
2022-09-02T16:58:11.883Z,6.40
2022-09-02T17:01:14.347Z,6.05
2022-09-02T17:04:15.331Z,6.68
2022-09-02T17:07:16.559Z,5.68
2022-09-02T17:10:17.698Z,6.55
2022-09-02T17:13:18.791Z,7.75
2022-09-02T17:16:22.373Z,8.07
2022-09-02T17:19:26.245Z,8.35
2022-09-02T17:22:29.931Z,9.67
2022-09-02T17:25:31.187Z,8.98
2022-09-02T17:28:32.460Z,9.15
2022-09-02T17:31:34.504Z,8.98
2022-09-02T17:34:35.553Z,9.55
2022-09-02T17:37:37.238Z,10.68
2022-09-02T17:40:56.803Z,9.13
2022-09-02T17:43:58.406Z,7.93
2022-09-02T17:47:00.147Z,8.10
2022-09-02T17:50:00.947Z,7.53
2022-09-02T17:53:01.671Z,8.38
2022-09-02T17:56:37.622Z,9.63
2022-09-02T17:59:59.283Z,11.50
2022-09-02T18:03:42.081Z,8.32
2022-09-02T18:06:49.307Z,9.80
2022-09-02T18:09:52.696Z,9.55
2022-09-02T18:12:56.373Z,8.73
2022-09-02T18:16:48.305Z,8.32
2022-09-02T18:20:19.730Z,7.88
2022-09-02T18:24:12.743Z,7.53
2022-09-02T18:27:55.880Z,7.70
2022-09-02T18:31:09.450Z,7.45
2022-09-02T18:34:44.269Z,8.98
2022-09-02T18:38:28.387Z,8.13
2022-09-02T18:42:10.895Z,8.27
2022-09-02T18:45:29.699Z,9.73
2022-09-02T18:48:37.242Z,9.68
2022-09-02T18:51:44.826Z,10.30
2022-09-02T18:54:54.364Z,10.45
2022-09-02T18:58:06.857Z,10.70
2022-09-02T19:01:26.519Z,10.73
2022-09-02T19:04:37.655Z,10.18
2022-09-02T19:07:57.272Z,15.55
2022-09-02T19:11:18.883Z,10.25
2022-09-02T19:14:28.980Z,10.20
2022-09-02T19:17:30.188Z,9.68
2022-09-02T19:20:33.920Z,9.30
2022-09-02T19:23:36.605Z,9.80
2022-09-02T19:26:41.815Z,10.30
2022-09-02T19:29:51.507Z,8.82
2022-09-02T19:32:57.370Z,9.63
2022-09-02T19:35:59.381Z,8.98
2022-09-02T19:39:00.313Z,9.80
2022-09-02T19:42:01.644Z,9.90
2022-09-02T19:45:02.840Z,12.05
2022-09-02T19:48:07.942Z,11.60
2022-09-02T19:51:14.470Z,8.68
2022-09-02T19:54:17.997Z,9.45
2022-09-02T19:57:18.752Z,8.68
2022-09-02T20:00:20.669Z,9.55
2022-09-02T20:03:21.906Z,10.02
2022-09-02T20:06:23.269Z,11.23
2022-09-02T20:09:25.754Z,9.70
2022-09-02T20:12:36.426Z,10.38
2022-09-02T20:15:38.941Z,11.10
2022-09-02T20:18:45.560Z,10.65
2022-09-02T20:21:46.860Z,10.10
2022-09-02T20:24:48.190Z,10.27
2022-09-02T20:28:01.958Z,9.77
2022-09-02T20:31:31.599Z,10.40
2022-09-02T20:34:44.751Z,9.93
2022-09-02T20:38:24.772Z,9.68
2022-09-02T20:41:48.506Z,9.13
2022-09-02T20:45:30.176Z,10.70
2022-09-02T20:49:18.574Z,8.80
2022-09-02T20:52:40.749Z,9.20
2022-09-02T20:56:10.992Z,12.00
2022-09-02T20:59:49.963Z,11.15
2022-09-02T21:03:11.096Z,10.13
2022-09-02T21:06:12.384Z,11.27
2022-09-02T21:09:31.530Z,11.73
2022-09-02T21:12:37.236Z,10.75
2022-09-02T21:15:55.955Z,10.55
2022-09-02T21:19:10.804Z,10.90
2022-09-02T21:22:30.262Z,11.77
2022-09-02T21:25:54.108Z,10.13
2022-09-02T21:29:02.902Z,10.30
2022-09-02T21:32:39.060Z,10.70
2022-09-02T21:35:47.238Z,10.05
2022-09-02T21:38:50.118Z,10.00
2022-09-02T21:42:20.655Z,10.57
2022-09-02T21:45:51.328Z,10.32
2022-09-02T21:49:21.414Z,9.38
2022-09-02T21:52:49.091Z,8.38
2022-09-02T21:56:19.635Z,7.53
2022-09-02T21:59:46.867Z,8.27
2022-09-02T22:03:16.429Z,9.70
2022-09-02T22:06:37.028Z,10.10
2022-09-02T22:09:38.000Z,10.13
2022-09-02T22:12:47.749Z,10.18
2022-09-02T22:16:02.893Z,10.48
2022-09-02T22:19:11.000Z,11.27
2022-09-02T22:22:18.658Z,12.25
2022-09-02T22:28:48.760Z,10.23
2022-09-02T22:31:57.340Z,10.43
2022-09-02T22:35:09.637Z,10.13
2022-09-02T22:38:33.452Z,9.43
2022-09-02T22:41:34.428Z,14.32
2022-09-02T22:45:09.986Z,8.43
2022-09-02T22:48:37.786Z,9.98
2022-09-02T22:52:11.176Z,10.00
2022-09-02T22:55:14.679Z,10.15
2022-09-02T22:59:07.549Z,10.52
2022-09-02T23:02:34.332Z,11.07
2022-09-02T23:05:56.337Z,10.57
2022-09-02T23:09:08.977Z,12.27
2022-09-02T23:12:31.815Z,10.90
2022-09-02T23:16:02.300Z,10.73
2022-09-02T23:19:44.390Z,11.35
2022-09-02T23:23:22.987Z,10.50
2022-09-02T23:26:47.231Z,11.25
2022-09-02T23:29:51.730Z,11.95
2022-09-02T23:33:15.267Z,12.18
2022-09-02T23:36:49.457Z,12.55
2022-09-02T23:40:54.390Z,11.75
2022-09-02T23:43:55.289Z,13.32
2022-09-02T23:47:17.487Z,11.75
2022-09-02T23:50:42.176Z,12.07
2022-09-02T23:54:32.221Z,16.65
2022-09-02T23:58:03.657Z,14.20
